Warning: Javascript must be enabled to use all the features on this page!


Page Loading - Please Wait...

* We've detected you're using a mobile device. Find our Next Generation Station Page here.
Click to hideNews Bulletins
Click to hide state-specific text

NOTE: During winter months, stage and discharge may be significantly affected by backwater from ice, resulting in incorrect discharge data. Consequently, discharge data may not be displayed during periods of ice effect. Click here for more information.



! We're replacing this page with a Next Generation Monitoring Location Page.
We're modernizing Water Data for the Nation delivery. Find out what this means for you. This page will be discontinued Jan.1, 2023.

USGS 05289800 MINNEHAHA CREEK AT HIAWATHA AVE. IN MINNEAPOLIS,MN

PROVISIONAL DATA SUBJECT TO REVISION

Click to hidestation-specific text
Minnehaha Creek Watershed District logo USGS Logo

Operated in cooperation with the Minnehaha Creek Watershed District with USGS matching funds.

For paddling the creek, the Minnehaha Creek Watershed District suggests a streamflow (also known as discharge) rate between 75-150 cubic feet per second, depending on experience. More information is available from the MCWD web page here or at the link above.

USGS WaterWatch's "Site Dashboard" provides seasonal and other context-oriented information about current and historical streamflow.

Precipitation data are temporary and will only be displayed for 120 days. Retrievals of older data will not be available. Although rainfall instrumentation is calibrated least annually, the temporary classification means that documented routine inspections and other quality assurance measures may not be performed that would make the data suitable for archival, retrieval, or future use in general scientific or interpretive studies.

Click on the static or time-lapse images below to download or view larger versions from the Storm Summary Time Lapse web page.

Most recent photo of creek

Time-lapse videos are considered proof of concept with no guarantee of up time. Videos can be viewed using Chrome, Firefox or Opera browser applications on smartphone, tablet, and computer devices. Additional browser support for Safari and Internet Explorer may be added later.

Any use of trade, firm, or product names is for descriptive purposes only and does not imply endorsement by the U.S. Government.

This station managed by the Mounds View Field Office.

Available Parameters Available Period
  
2010-10-01  2022-07-02
2022-03-04  2022-07-02
2006-10-01  2022-07-02
2007-10-01  2022-07-02
2010-10-01  2022-07-02
2019-10-01  2022-07-02







 (7)
 

  -- or --

 


 

Summary of all available data for this site
Instantaneous-data availability statement
Discharge, cubic feet per second
TIMEJun 25Jun 26Jun 27Jun 28Jun 29Jun 30Jul 1Jul 2
00:00 CDT9.24P  14.7P  8.62P  6.97P  7.49P  9.24P  9.56P  8.04P  
00:15 CDT8.93P  14.7P  8.62P  6.97P  7.49P  9.24P  9.56P  8.04P  
00:30 CDT9.24P  14.4P  8.62P  6.97P  7.49P  8.93P  9.56P  8.04P  
00:45 CDT9.24P  14.4P  8.62P  6.97P  7.49P  9.24P  9.56P  8.04P  
01:00 CDT9.24P  14.4P  8.62P  6.97P  7.49P  9.24P  9.56P  8.04P  
01:15 CDT9.24P  14.4P  8.62P  6.72P  7.49P  9.24P  9.56P  8.04P  
01:30 CDT9.24P  14.1P  8.33P  6.72P  7.49P  8.93P  9.56P  8.04P  
01:45 CDT9.24P  14.1P  8.62P  6.72P  7.49P  8.93P  9.24P  7.76P  
02:00 CDT8.93P  14.1P  8.33P  6.72P  7.49P  9.24P  9.24P  7.76P  
02:15 CDT9.24P  14.1P  8.33P  6.72P  7.76P  9.24P  9.24P  7.76P  
02:30 CDT9.24P  13.9P  8.33P  6.72P  7.49P  8.93P  9.24P  7.76P  
02:45 CDT9.24P  13.9P  8.33P  6.72P  7.76P  8.93P  9.24P  7.76P  
03:00 CDT8.93P  13.9P  8.33P  6.72P  7.76P  8.62P  9.24P  7.76P  
03:15 CDT9.24P  13.9P  8.33P  6.72P  7.76P  8.62P  9.24P  7.76P  
03:30 CDT9.24P  13.9P  8.33P  6.72P  7.76P  8.62P  9.24P  7.76P  
03:45 CDT9.24P  13.6P  8.33P  6.48P  7.76P  8.62P  9.24P  7.76P  
04:00 CDT9.24P  13.6P  8.33P  6.48P  7.76P  8.62P  9.24P  7.76P  
04:15 CDT9.24P  13.6P  8.33P  6.48P  7.76P  8.62P  9.24P  7.49P  
04:30 CDT9.24P  13.6P  8.33P  6.48P  7.76P  8.62P  9.24P  7.49P  
04:45 CDT9.24P  13.3P  8.04P  6.48P  7.76P  9.24P  9.24P  7.49P  
05:00 CDT9.24P  13.3P  8.04P  6.48P  7.76P  9.24P  9.24P  7.49P  
05:15 CDT9.24P  13.3P  8.04P  6.72P  7.76P  9.56P   7.76P  
05:30 CDT10.6P  13.3P  8.04P  6.48P  7.76P  9.89P   7.76P  
05:45 CDT11.7P  13.3P  8.04P  6.48P  7.76P  9.89P   7.76P  
06:00 CDT13.9P  12.9P  8.04P  6.25P  7.76P  10.2P   7.49P  
06:15 CDT15.9P  12.9P  8.04P  6.02P  7.76P  10.2P   7.76P  
06:30 CDT18.5P  12.9P  8.04P  6.25P  7.76P  10.2P  9.24P  7.76P  
06:45 CDT20.2P  12.9P  8.04P  6.25P  7.76P  10.2P  9.24P  7.76P  
07:00 CDT20.6P  12.5P  7.76P  6.25P  7.76P  10.2P  9.24P  7.76P  
07:15 CDT 12.5P  7.76P  6.25P  8.04P  10.2P  9.24P  7.76P  
07:30 CDT 12.5P  7.76P  6.48P  8.04P  10.2P  9.24P  7.76P  
07:45 CDT 12.5P  7.76P  6.48P  8.04P  10.2P  9.24P  7.76P  
08:00 CDT 12.5P  7.76P  6.48P  8.04P  9.89P  9.24P  7.49P  
08:15 CDT16.8P  12.1P  7.76P  6.48P  8.04P  9.89P  9.24P  7.49P  
08:30 CDT16.5P  12.1P  7.76P  6.48P  8.04P  9.89P  9.24P  7.49P  
08:45 CDT15.9P  12.1P  7.76P  6.48P  8.04P  9.89P  9.24P  7.49P  
09:00 CDT15.6P  12.1P  7.76P  6.48P  8.33P  9.56P  9.24P  7.49P  
09:05 CDT15.6P         
09:15 CDT15.6P  12.1P  7.76P  6.48P  8.33P  9.56P  9.24P  7.49P  
09:30 CDT15.3P  12.1P  7.76P  6.48P  8.33P  9.56P  8.93P  7.49P  
09:45 CDT15.0P  12.1P  7.76P  6.48P  8.33P  9.56P  9.24P  7.49P  
10:00 CDT15.0P  12.1P  7.76P  6.48P  8.33P  9.56P  8.93P  7.49P  
10:15 CDT15.0P  11.7P  7.76P  6.48P  8.33P  9.24P  8.93P  7.49P  
10:30 CDT15.3P  11.7P  7.76P  6.48P  8.33P  9.24P  8.93P  7.49P  
10:45 CDT15.3P  11.7P  7.76P  6.48P  8.33P  9.24P  8.93P  7.49P  
11:00 CDT15.3P  11.7P  7.76P  6.48P  8.33P  9.24P  8.93P  7.49P  
11:15 CDT15.3P  11.3P  7.76P  6.48P  8.33P  9.24P  8.93P  7.49P  
11:30 CDT15.6P  11.3P  7.76P  6.48P  8.62P  8.93P  8.93P  7.49P  
11:45 CDT15.6P  11.3P  7.76P  6.48P  8.62P  8.93P  8.93P  7.49P  
12:00 CDT15.6P  11.3P  7.76P  6.48P  8.62P  8.93P  8.93P  7.49P  
12:15 CDT15.6P  11.3P  7.76P  6.48P   8.93P  8.93P  7.49P  
12:30 CDT15.9P  10.9P  7.76P  6.48P   8.93P  8.93P  7.49P  
12:45 CDT15.9P  10.9P  7.76P  6.48P   8.93P  8.93P  7.76P  
13:00 CDT15.9P  10.9P  7.76P  6.48P   8.93P  8.93P  7.76P  
13:15 CDT15.9P  10.9P  7.76P  6.48P  8.62P  8.93P  8.93P  7.76P  
13:30 CDT15.9P  10.9P  7.76P  6.48P  8.62P  8.93P  8.93P  7.76P  
13:45 CDT15.9P  10.9P  7.76P  6.48P  8.62P  8.93P  8.93P  7.76P  
14:00 CDT15.9P  10.6P  7.76P  6.48P  8.62P  8.93P  8.93P  7.76P  
14:15 CDT16.2P  10.6P  7.76P  6.48P  8.62P  8.93P  8.93P  7.76P  
14:30 CDT16.2P  10.6P  7.76P  6.48P  8.62P  8.93P  8.93P  7.76P  
14:45 CDT16.2P  10.6P  7.76P  6.48P  8.62P  8.93P  8.93P  7.49P  
15:00 CDT16.2P  10.6P  7.76P  6.48P  8.62P  8.93P  8.93P  7.49P  
15:15 CDT16.2P  10.6P  7.49P  6.72P  8.62P  8.93P  8.93P  7.76P  
15:25 CDT16.2P         
15:30 CDT16.2P  10.6P  7.49P  6.72P  8.62P  8.93P  8.93P  7.76P  
15:45 CDT15.9P  10.2P  7.49P  6.72P  8.93P  8.93P  8.93P  7.76P  
16:00 CDT16.2P  10.2P  7.76P  6.72P  8.62P  8.93P  8.93P  7.76P  
16:15 CDT16.2P  10.2P  7.49P  6.72P  8.62P  8.93P  8.62P  7.76P  
16:30 CDT16.2P  10.2P  7.76P  6.72P  8.62P  8.93P  8.62P  7.76P  
16:45 CDT15.9P  9.89P  7.49P  6.72P  8.62P  8.93P  8.62P  7.76P  
17:00 CDT15.9P  10.2P  7.49P  6.72P  8.62P  8.93P  8.62P  7.76P  
17:15 CDT15.9P  10.2P  7.76P  6.72P  8.62P  9.24P  8.62P  7.76P  
17:30 CDT15.9P  9.89P  7.49P  6.72P  8.62P  9.24P  8.62P  7.76P  
17:45 CDT15.9P  9.89P  7.49P  6.72P  8.62P  9.24P  8.62P  7.76P  
18:00 CDT15.9P  9.89P  7.49P  6.72P  8.62P  9.24P  8.62P  7.76P  
18:15 CDT15.9P  9.89P  7.49P  6.72P  8.93P  9.24P  8.62P  7.76P  
18:30 CDT15.9P  9.89P  7.49P  6.97P  8.93P  9.24P  8.62P  7.76P  
18:45 CDT15.9P  9.89P  7.49P  6.97P  8.62P  9.24P  8.62P  7.76P  
19:00 CDT15.9P  9.89P  7.49P  6.97P  8.62P  9.24P  8.62P  7.76P  
19:15 CDT15.9P  9.56P  7.49P  6.97P  8.62P  9.24P  8.62P   
19:30 CDT15.6P  9.56P  7.49P  6.97P  8.62P  9.24P  8.62P   
19:45 CDT15.6P  9.56P  7.49P  6.97P  8.62P  9.24P  8.62P   
20:00 CDT15.6P  9.56P  7.49P  6.97P  8.62P  9.24P  8.62P   
20:15 CDT15.3P  9.56P  7.49P  6.97P  8.62P  9.56P  8.33P   
20:30 CDT15.6P  9.56P  7.49P  6.97P  8.62P  9.24P  8.33P   
20:45 CDT15.6P  9.56P  7.49P  7.23P  8.93P  9.24P  8.33P   
21:00 CDT15.3P  9.24P  7.49P  7.23P  8.93P  9.24P  8.33P   
21:15 CDT15.3P  9.24P  7.49P  7.23P  8.62P  9.56P  8.33P   
21:30 CDT15.3P  9.24P  7.49P  7.23P  8.62P  9.56P  8.33P   
21:45 CDT15.3P  9.24P  7.23P  7.23P  8.62P  9.56P  8.33P   
22:00 CDT15.3P  9.24P  7.23P  7.23P  8.62P  9.56P  8.33P   
22:15 CDT15.3P  8.93P  7.23P  6.97P  8.62P  9.56P  8.33P   
22:30 CDT15.0P  8.93P  7.23P  7.23P  8.62P  9.56P  8.33P   
22:45 CDT15.0P  8.93P  7.23P  7.23P  8.33P  9.56P  8.33P   
23:00 CDT15.0P  8.93P  7.23P  7.23P  8.62P  9.56P  8.04P   
23:15 CDT15.0P  8.93P  6.97P  7.23P  8.93P  9.56P  8.04P   
23:30 CDT15.0P  8.93P  6.97P  7.23P  9.24P  9.56P  8.04P   
23:45 CDT14.7P  8.62P  6.97P  7.49P  9.24P  9.56P  8.04P   
COUNT9496969692969177
MAX20.614.78.627.499.2410.29.568.04
MIN8.938.626.976.027.498.628.047.49

Explanation
  P  Provisional data subject to revision.